Aerbrava English version Versión de Aerbrava en Español Versió en Català d'Aerbrava
curve curve
Thursday, 27 de February de 2020
03:40 UTC
Sunrise: 06:30
Sunset: 17:32

AERONAUTICAL WEATHER

WEATHER INFORMATION

This section shows the meteorological information that is used in the practice of students in the pilot school at our center during training, so it may not be current and should be used at your own risk. AERBRAVA is not responsible for its use.

ACTUAL WEATHER

Servei Meteorològic de Catalunya sat24.com
LEGE 270330Z 00000KT 9999 BKN027 OVC035 06/05 Q1018
LEGE 270300Z VRB01KT 9999 BKN029 OVC035 06/05 Q1018
LEGE 270230Z VRB02KT 9999 BKN031 OVC038 06/05 Q1018
LEGE 270200Z 00000KT 9999 BKN031 BKN041 OVC047 07/05 Q1018
LEGE 270130Z 00000KT 9999 SCT032 BKN038 OVC049 07/05 Q1019
LEGE 270100Z VRB02KT 9999 BKN035 BKN041 OVC049 08/05 Q1019
LEGE 270030Z 00000KT 9999 BKN032 BKN042 OVC050 07/05 Q1018
LEGE 270000Z 26001KT 9999 OVC028 07/04 Q1019
TAF LEGE 262300Z 2700/2724 VRB03KT 9999 BKN030 TX20/2715Z TN05/2706Z   PROB40   TEMPO 2708/2712 29007KT
National Weather service
logo About us | Site map | Privacy | Contact | © 2020 AERBRAVA, SCP